sensor_id;sensor_type;location;lat;lon;timestamp;P1;durP1;ratioP1;P2;durP2;ratioP2
17763;SDS011;22245;52.832;13.816;2023-03-21T00:01:12;11.40;;;7.47;;
17763;SDS011;22245;52.832;13.816;2023-03-21T00:04:34;10.53;;;6.40;;
17763;SDS011;22245;52.832;13.816;2023-03-21T00:08:16;9.33;;;5.90;;
17763;SDS011;22245;52.832;13.816;2023-03-21T00:11:38;9.97;;;5.97;;
17763;SDS011;22245;52.832;13.816;2023-03-21T00:15:02;14.27;;;7.03;;
17763;SDS011;22245;52.832;13.816;2023-03-21T00:18:25;10.67;;;6.20;;
17763;SDS011;22245;52.832;13.816;2023-03-21T00:21:47;14.30;;;7.07;;
17763;SDS011;22245;52.832;13.816;2023-03-21T00:25:28;11.53;;;6.30;;
17763;SDS011;22245;52.832;13.816;2023-03-21T00:28:50;11.97;;;6.37;;
17763;SDS011;22245;52.832;13.816;2023-03-21T00:32:14;12.13;;;6.43;;
17763;SDS011;22245;52.832;13.816;2023-03-21T00:35:36;10.20;;;6.60;;
17763;SDS011;22245;52.832;13.816;2023-03-21T00:39:18;12.47;;;6.40;;
17763;SDS011;22245;52.832;13.816;2023-03-21T00:42:44;13.10;;;6.40;;
17763;SDS011;22245;52.832;13.816;2023-03-21T00:46:05;13.70;;;6.63;;
17763;SDS011;22245;52.832;13.816;2023-03-21T00:49:29;12.63;;;7.00;;
17763;SDS011;22245;52.832;13.816;2023-03-21T00:52:54;12.27;;;7.30;;
17763;SDS011;22245;52.832;13.816;2023-03-21T00:56:16;10.90;;;6.70;;
17763;SDS011;22245;52.832;13.816;2023-03-21T00:59:38;10.77;;;6.40;;
17763;SDS011;22245;52.832;13.816;2023-03-21T01:03:02;10.53;;;6.07;;
17763;SDS011;22245;52.832;13.816;2023-03-21T01:06:44;10.67;;;6.63;;
17763;SDS011;22245;52.832;13.816;2023-03-21T01:10:06;12.10;;;6.60;;
17763;SDS011;22245;52.832;13.816;2023-03-21T01:13:28;11.07;;;6.53;;
17763;SDS011;22245;52.832;13.816;2023-03-21T01:16:53;10.83;;;6.53;;
17763;SDS011;22245;52.832;13.816;2023-03-21T01:20:15;10.63;;;6.90;;
17763;SDS011;22245;52.832;13.816;2023-03-21T01:23:39;13.13;;;6.80;;
17763;SDS011;22245;52.832;13.816;2023-03-21T01:27:02;9.97;;;6.10;;
17763;SDS011;22245;52.832;13.816;2023-03-21T01:30:24;12.03;;;7.20;;
17763;SDS011;22245;52.832;13.816;2023-03-21T01:33:50;10.47;;;5.97;;
17763;SDS011;22245;52.832;13.816;2023-03-21T01:37:12;12.03;;;6.63;;
17763;SDS011;22245;52.832;13.816;2023-03-21T01:40:43;10.53;;;6.20;;
17763;SDS011;22245;52.832;13.816;2023-03-21T01:44:18;9.07;;;5.80;;
17763;SDS011;22245;52.832;13.816;2023-03-21T01:47:41;11.17;;;5.83;;
17763;SDS011;22245;52.832;13.816;2023-03-21T01:51:18;10.70;;;6.17;;
17763;SDS011;22245;52.832;13.816;2023-03-21T01:54:48;10.43;;;6.17;;
17763;SDS011;22245;52.832;13.816;2023-03-21T01:58:12;10.07;;;5.63;;
17763;SDS011;22245;52.832;13.816;2023-03-21T02:01:52;10.67;;;5.80;;
17763;SDS011;22245;52.832;13.816;2023-03-21T02:05:18;13.07;;;6.37;;
17763;SDS011;22245;52.832;13.816;2023-03-21T02:08:45;12.30;;;6.00;;
17763;SDS011;22245;52.832;13.816;2023-03-21T02:12:07;10.17;;;6.03;;
17763;SDS011;22245;52.832;13.816;2023-03-21T02:15:30;9.60;;;6.17;;
17763;SDS011;22245;52.832;13.816;2023-03-21T02:19:05;8.23;;;5.53;;
17763;SDS011;22245;52.832;13.816;2023-03-21T02:23:07;10.27;;;6.13;;
17763;SDS011;22245;52.832;13.816;2023-03-21T02:27:05;11.33;;;5.80;;
17763;SDS011;22245;52.832;13.816;2023-03-21T02:30:37;9.80;;;5.70;;
17763;SDS011;22245;52.832;13.816;2023-03-21T02:34:20;10.43;;;5.97;;
17763;SDS011;22245;52.832;13.816;2023-03-21T02:38:02;8.73;;;5.93;;
17763;SDS011;22245;52.832;13.816;2023-03-21T02:41:31;11.33;;;6.00;;
17763;SDS011;22245;52.832;13.816;2023-03-21T02:45:01;13.33;;;6.23;;
17763;SDS011;22245;52.832;13.816;2023-03-21T02:48:31;10.90;;;6.30;;
17763;SDS011;22245;52.832;13.816;2023-03-21T02:52:10;11.27;;;5.63;;
17763;SDS011;22245;52.832;13.816;2023-03-21T02:55:48;9.97;;;5.57;;
17763;SDS011;22245;52.832;13.816;2023-03-21T02:59:13;12.40;;;6.00;;
17763;SDS011;22245;52.832;13.816;2023-03-21T03:02:38;12.07;;;5.50;;
17763;SDS011;22245;52.832;13.816;2023-03-21T03:06:01;9.83;;;5.50;;
17763;SDS011;22245;52.832;13.816;2023-03-21T03:09:29;8.50;;;5.93;;
17763;SDS011;22245;52.832;13.816;2023-03-21T03:13:04;8.23;;;5.77;;
17763;SDS011;22245;52.832;13.816;2023-03-21T03:16:37;9.30;;;5.70;;
17763;SDS011;22245;52.832;13.816;2023-03-21T03:20:17;9.40;;;6.07;;
17763;SDS011;22245;52.832;13.816;2023-03-21T03:23:54;10.10;;;5.80;;
17763;SDS011;22245;52.832;13.816;2023-03-21T03:27:23;9.13;;;6.03;;
17763;SDS011;22245;52.832;13.816;2023-03-21T03:30:51;8.90;;;5.87;;
17763;SDS011;22245;52.832;13.816;2023-03-21T03:34:44;11.33;;;6.03;;
17763;SDS011;22245;52.832;13.816;2023-03-21T03:38:12;10.33;;;6.03;;
17763;SDS011;22245;52.832;13.816;2023-03-21T03:41:34;14.30;;;6.20;;
17763;SDS011;22245;52.832;13.816;2023-03-21T03:45:27;10.10;;;6.07;;
17763;SDS011;22245;52.832;13.816;2023-03-21T03:48:57;10.80;;;6.20;;
17763;SDS011;22245;52.832;13.816;2023-03-21T03:52:22;13.30;;;5.90;;
17763;SDS011;22245;52.832;13.816;2023-03-21T03:55:53;13.57;;;6.50;;
17763;SDS011;22245;52.832;13.816;2023-03-21T03:59:16;10.67;;;6.30;;
17763;SDS011;22245;52.832;13.816;2023-03-21T04:03:01;13.20;;;6.43;;
17763;SDS011;22245;52.832;13.816;2023-03-21T04:06:27;11.17;;;6.73;;
17763;SDS011;22245;52.832;13.816;2023-03-21T04:09:49;14.07;;;7.33;;
17763;SDS011;22245;52.832;13.816;2023-03-21T04:13:12;11.47;;;7.70;;
17763;SDS011;22245;52.832;13.816;2023-03-21T04:16:40;12.83;;;7.50;;
17763;SDS011;22245;52.832;13.816;2023-03-21T04:20:02;13.50;;;8.70;;
17763;SDS011;22245;52.832;13.816;2023-03-21T04:23:35;16.60;;;8.80;;
17763;SDS011;22245;52.832;13.816;2023-03-21T04:26:57;16.23;;;8.77;;
17763;SDS011;22245;52.832;13.816;2023-03-21T04:30:33;18.10;;;10.17;;
17763;SDS011;22245;52.832;13.816;2023-03-21T04:34:02;21.67;;;10.23;;
17763;SDS011;22245;52.832;13.816;2023-03-21T04:37:31;21.90;;;10.77;;
17763;SDS011;22245;52.832;13.816;2023-03-21T04:40:56;24.63;;;11.33;;
17763;SDS011;22245;52.832;13.816;2023-03-21T04:44:17;23.77;;;11.57;;
17763;SDS011;22245;52.832;13.816;2023-03-21T04:47:39;22.83;;;11.20;;
17763;SDS011;22245;52.832;13.816;2023-03-21T04:51:02;24.30;;;11.07;;
17763;SDS011;22245;52.832;13.816;2023-03-21T04:54:24;19.53;;;11.10;;
17763;SDS011;22245;52.832;13.816;2023-03-21T04:57:47;18.83;;;10.93;;
17763;SDS011;22245;52.832;13.816;2023-03-21T05:01:08;23.47;;;11.97;;
17763;SDS011;22245;52.832;13.816;2023-03-21T05:04:34;26.47;;;11.93;;
17763;SDS011;22245;52.832;13.816;2023-03-21T05:07:56;23.43;;;11.63;;
17763;SDS011;22245;52.832;13.816;2023-03-21T05:11:17;24.37;;;13.43;;
17763;SDS011;22245;52.832;13.816;2023-03-21T05:14:41;25.43;;;13.73;;
17763;SDS011;22245;52.832;13.816;2023-03-21T05:18:02;25.03;;;13.33;;
17763;SDS011;22245;52.832;13.816;2023-03-21T05:21:41;23.83;;;13.17;;
17763;SDS011;22245;52.832;13.816;2023-03-21T05:25:11;26.37;;;14.47;;
17763;SDS011;22245;52.832;13.816;2023-03-21T05:29:03;31.93;;;14.67;;
17763;SDS011;22245;52.832;13.816;2023-03-21T05:32:27;23.90;;;14.87;;
17763;SDS011;22245;52.832;13.816;2023-03-21T05:35:49;27.23;;;15.63;;
17763;SDS011;22245;52.832;13.816;2023-03-21T05:39:12;27.27;;;15.50;;
17763;SDS011;22245;52.832;13.816;2023-03-21T05:42:41;29.93;;;17.43;;
17763;SDS011;22245;52.832;13.816;2023-03-21T05:46:08;31.50;;;17.90;;
17763;SDS011;22245;52.832;13.816;2023-03-21T05:49:32;32.53;;;18.30;;
17763;SDS011;22245;52.832;13.816;2023-03-21T05:52:55;31.83;;;17.87;;
17763;SDS011;22245;52.832;13.816;2023-03-21T05:56:16;30.43;;;18.13;;
17763;SDS011;22245;52.832;13.816;2023-03-21T05:59:43;30.97;;;19.27;;
17763;SDS011;22245;52.832;13.816;2023-03-21T06:03:05;39.47;;;19.77;;
17763;SDS011;22245;52.832;13.816;2023-03-21T06:06:40;36.10;;;19.83;;
17763;SDS011;22245;52.832;13.816;2023-03-21T06:10:02;33.27;;;19.87;;
17763;SDS011;22245;52.832;13.816;2023-03-21T06:13:24;33.83;;;19.67;;
17763;SDS011;22245;52.832;13.816;2023-03-21T06:16:46;33.73;;;20.27;;
17763;SDS011;22245;52.832;13.816;2023-03-21T06:20:08;36.07;;;20.33;;
17763;SDS011;22245;52.832;13.816;2023-03-21T06:23:40;39.17;;;21.73;;
17763;SDS011;22245;52.832;13.816;2023-03-21T06:27:03;42.83;;;22.77;;
17763;SDS011;22245;52.832;13.816;2023-03-21T06:30:39;35.80;;;20.57;;
17763;SDS011;22245;52.832;13.816;2023-03-21T06:34:08;38.53;;;22.57;;
17763;SDS011;22245;52.832;13.816;2023-03-21T06:37:31;44.83;;;21.67;;
17763;SDS011;22245;52.832;13.816;2023-03-21T06:40:54;40.70;;;22.63;;
17763;SDS011;22245;52.832;13.816;2023-03-21T06:44:19;40.57;;;21.67;;
17763;SDS011;22245;52.832;13.816;2023-03-21T06:47:49;35.70;;;21.27;;
17763;SDS011;22245;52.832;13.816;2023-03-21T06:51:22;39.53;;;22.80;;
17763;SDS011;22245;52.832;13.816;2023-03-21T06:55:08;38.73;;;22.63;;
17763;SDS011;22245;52.832;13.816;2023-03-21T06:58:34;37.90;;;22.47;;
17763;SDS011;22245;52.832;13.816;2023-03-21T07:01:57;44.27;;;23.37;;
17763;SDS011;22245;52.832;13.816;2023-03-21T07:05:22;40.10;;;22.30;;
17763;SDS011;22245;52.832;13.816;2023-03-21T07:08:45;40.30;;;23.00;;
17763;SDS011;22245;52.832;13.816;2023-03-21T07:12:10;41.27;;;23.03;;
17763;SDS011;22245;52.832;13.816;2023-03-21T07:15:52;39.30;;;22.30;;
17763;SDS011;22245;52.832;13.816;2023-03-21T07:19:14;39.30;;;22.70;;
17763;SDS011;22245;52.832;13.816;2023-03-21T07:22:35;44.90;;;22.60;;
17763;SDS011;22245;52.832;13.816;2023-03-21T07:25:57;46.93;;;26.90;;
17763;SDS011;22245;52.832;13.816;2023-03-21T07:29:19;46.07;;;24.07;;
17763;SDS011;22245;52.832;13.816;2023-03-21T07:32:43;42.37;;;24.83;;
17763;SDS011;22245;52.832;13.816;2023-03-21T07:36:08;38.67;;;23.37;;
17763;SDS011;22245;52.832;13.816;2023-03-21T07:39:31;38.87;;;20.87;;
17763;SDS011;22245;52.832;13.816;2023-03-21T07:42:54;41.90;;;22.63;;
17763;SDS011;22245;52.832;13.816;2023-03-21T07:46:25;40.23;;;22.63;;
17763;SDS011;22245;52.832;13.816;2023-03-21T07:49:48;42.90;;;22.70;;
17763;SDS011;22245;52.832;13.816;2023-03-21T07:53:10;40.83;;;23.37;;
17763;SDS011;22245;52.832;13.816;2023-03-21T07:56:31;40.70;;;23.23;;
17763;SDS011;22245;52.832;13.816;2023-03-21T07:59:53;39.60;;;24.53;;
17763;SDS011;22245;52.832;13.816;2023-03-21T08:03:15;44.00;;;24.53;;
17763;SDS011;22245;52.832;13.816;2023-03-21T08:06:38;46.73;;;24.10;;
17763;SDS011;22245;52.832;13.816;2023-03-21T08:10:00;44.17;;;24.17;;
17763;SDS011;22245;52.832;13.816;2023-03-21T08:13:22;45.17;;;25.90;;
17763;SDS011;22245;52.832;13.816;2023-03-21T08:16:45;44.83;;;24.37;;
17763;SDS011;22245;52.832;13.816;2023-03-21T08:20:07;48.87;;;26.03;;
17763;SDS011;22245;52.832;13.816;2023-03-21T08:23:33;42.97;;;24.67;;
17763;SDS011;22245;52.832;13.816;2023-03-21T08:26:55;45.57;;;25.43;;
17763;SDS011;22245;52.832;13.816;2023-03-21T08:30:17;49.40;;;26.17;;
17763;SDS011;22245;52.832;13.816;2023-03-21T08:33:40;44.87;;;24.97;;
17763;SDS011;22245;52.832;13.816;2023-03-21T08:37:02;45.33;;;25.40;;
17763;SDS011;22245;52.832;13.816;2023-03-21T08:40:25;40.40;;;23.70;;
17763;SDS011;22245;52.832;13.816;2023-03-21T08:43:47;42.60;;;23.43;;
17763;SDS011;22245;52.832;13.816;2023-03-21T08:47:08;41.70;;;23.30;;
17763;SDS011;22245;52.832;13.816;2023-03-21T08:50:30;38.90;;;21.97;;
17763;SDS011;22245;52.832;13.816;2023-03-21T08:53:52;40.37;;;23.10;;
17763;SDS011;22245;52.832;13.816;2023-03-21T08:57:15;37.80;;;20.93;;
17763;SDS011;22245;52.832;13.816;2023-03-21T09:00:37;39.08;;;22.48;;
17763;SDS011;22245;52.832;13.816;2023-03-21T09:03:59;42.08;;;22.42;;
17763;SDS011;22245;52.832;13.816;2023-03-21T09:07:20;41.35;;;22.27;;
17763;SDS011;22245;52.832;13.816;2023-03-21T09:10:45;38.72;;;21.27;;
17763;SDS011;22245;52.832;13.816;2023-03-21T09:14:08;39.20;;;21.13;;
17763;SDS011;22245;52.832;13.816;2023-03-21T09:17:30;40.10;;;22.50;;
17763;SDS011;22245;52.832;13.816;2023-03-21T09:20:52;44.57;;;22.33;;
17763;SDS011;22245;52.832;13.816;2023-03-21T09:24:15;39.03;;;21.10;;
17763;SDS011;22245;52.832;13.816;2023-03-21T09:27:37;43.85;;;21.63;;
17763;SDS011;22245;52.832;13.816;2023-03-21T09:31:00;39.50;;;22.15;;
17763;SDS011;22245;52.832;13.816;2023-03-21T09:34:23;48.08;;;24.25;;
17763;SDS011;22245;52.832;13.816;2023-03-21T09:37:45;40.63;;;23.10;;
17763;SDS011;22245;52.832;13.816;2023-03-21T09:41:10;41.08;;;22.58;;
17763;SDS011;22245;52.832;13.816;2023-03-21T09:44:44;43.03;;;23.75;;
17763;SDS011;22245;52.832;13.816;2023-03-21T09:48:14;45.78;;;22.73;;
17763;SDS011;22245;52.832;13.816;2023-03-21T09:51:42;42.60;;;23.05;;
17763;SDS011;22245;52.832;13.816;2023-03-21T09:55:08;43.33;;;22.67;;
17763;SDS011;22245;52.832;13.816;2023-03-21T09:58:40;38.45;;;21.83;;
17763;SDS011;22245;52.832;13.816;2023-03-21T10:02:08;40.30;;;23.10;;
17763;SDS011;22245;52.832;13.816;2023-03-21T10:05:56;37.58;;;21.73;;
17763;SDS011;22245;52.832;13.816;2023-03-21T10:09:23;37.75;;;20.77;;
17763;SDS011;22245;52.832;13.816;2023-03-21T10:12:47;36.88;;;19.70;;
17763;SDS011;22245;52.832;13.816;2023-03-21T10:16:14;36.47;;;19.65;;
17763;SDS011;22245;52.832;13.816;2023-03-21T10:19:38;35.28;;;19.27;;
17763;SDS011;22245;52.832;13.816;2023-03-21T10:23:07;37.08;;;19.98;;
17763;SDS011;22245;52.832;13.816;2023-03-21T10:26:34;36.80;;;20.50;;
17763;SDS011;22245;52.832;13.816;2023-03-21T10:29:56;39.35;;;20.75;;
17763;SDS011;22245;52.832;13.816;2023-03-21T10:33:21;36.30;;;18.92;;
17763;SDS011;22245;52.832;13.816;2023-03-21T10:36:46;31.77;;;19.00;;
17763;SDS011;22245;52.832;13.816;2023-03-21T10:40:12;38.53;;;19.75;;
17763;SDS011;22245;52.832;13.816;2023-03-21T10:43:36;33.65;;;18.98;;
17763;SDS011;22245;52.832;13.816;2023-03-21T10:47:02;32.85;;;18.13;;
17763;SDS011;22245;52.832;13.816;2023-03-21T10:50:26;31.35;;;17.83;;
17763;SDS011;22245;52.832;13.816;2023-03-21T10:53:51;29.85;;;17.10;;
17763;SDS011;22245;52.832;13.816;2023-03-21T10:57:19;28.55;;;16.25;;
17763;SDS011;22245;52.832;13.816;2023-03-21T11:00:42;28.08;;;15.60;;
17763;SDS011;22245;52.832;13.816;2023-03-21T11:04:07;27.42;;;16.83;;
17763;SDS011;22245;52.832;13.816;2023-03-21T11:07:34;27.55;;;15.27;;
17763;SDS011;22245;52.832;13.816;2023-03-21T11:10:59;24.73;;;14.88;;
17763;SDS011;22245;52.832;13.816;2023-03-21T11:14:26;25.83;;;15.75;;
17763;SDS011;22245;52.832;13.816;2023-03-21T11:17:53;26.63;;;15.10;;
17763;SDS011;22245;52.832;13.816;2023-03-21T11:21:15;24.35;;;14.65;;
17763;SDS011;22245;52.832;13.816;2023-03-21T11:24:37;29.25;;;16.63;;
17763;SDS011;22245;52.832;13.816;2023-03-21T11:28:00;24.00;;;15.25;;
17763;SDS011;22245;52.832;13.816;2023-03-21T11:31:37;27.90;;;16.30;;
17763;SDS011;22245;52.832;13.816;2023-03-21T11:35:00;29.05;;;16.30;;
17763;SDS011;22245;52.832;13.816;2023-03-21T11:38:25;27.40;;;16.55;;
17763;SDS011;22245;52.832;13.816;2023-03-21T11:41:50;26.60;;;16.00;;
17763;SDS011;22245;52.832;13.816;2023-03-21T11:45:14;28.77;;;16.15;;
17763;SDS011;22245;52.832;13.816;2023-03-21T11:48:39;28.25;;;16.35;;
17763;SDS011;22245;52.832;13.816;2023-03-21T11:52:06;25.33;;;16.10;;
17763;SDS011;22245;52.832;13.816;2023-03-21T11:55:36;26.25;;;15.50;;
17763;SDS011;22245;52.832;13.816;2023-03-21T11:59:14;26.70;;;15.32;;
17763;SDS011;22245;52.832;13.816;2023-03-21T12:02:50;24.58;;;14.20;;
17763;SDS011;22245;52.832;13.816;2023-03-21T12:06:30;27.85;;;14.57;;
17763;SDS011;22245;52.832;13.816;2023-03-21T12:09:58;23.88;;;14.57;;
17763;SDS011;22245;52.832;13.816;2023-03-21T12:13:46;24.45;;;14.20;;
17763;SDS011;22245;52.832;13.816;2023-03-21T12:17:18;23.58;;;14.25;;
17763;SDS011;22245;52.832;13.816;2023-03-21T12:20:51;23.52;;;13.75;;
17763;SDS011;22245;52.832;13.816;2023-03-21T12:24:18;23.45;;;14.07;;
17763;SDS011;22245;52.832;13.816;2023-03-21T12:27:44;23.00;;;13.95;;
17763;SDS011;22245;52.832;13.816;2023-03-21T12:31:11;25.10;;;14.18;;
17763;SDS011;22245;52.832;13.816;2023-03-21T12:34:50;26.50;;;14.95;;
17763;SDS011;22245;52.832;13.816;2023-03-21T12:38:24;23.52;;;14.10;;
17763;SDS011;22245;52.832;13.816;2023-03-21T12:41:54;25.55;;;15.18;;
17763;SDS011;22245;52.832;13.816;2023-03-21T12:45:28;24.40;;;14.13;;
17763;SDS011;22245;52.832;13.816;2023-03-21T12:49:06;24.50;;;15.20;;
17763;SDS011;22245;52.832;13.816;2023-03-21T12:52:31;27.98;;;15.65;;
17763;SDS011;22245;52.832;13.816;2023-03-21T12:55:55;29.90;;;16.05;;
17763;SDS011;22245;52.832;13.816;2023-03-21T12:59:24;29.73;;;16.42;;
17763;SDS011;22245;52.832;13.816;2023-03-21T13:02:54;27.30;;;15.77;;
17763;SDS011;22245;52.832;13.816;2023-03-21T13:06:20;26.48;;;14.85;;
17763;SDS011;22245;52.832;13.816;2023-03-21T13:09:45;24.10;;;15.65;;
17763;SDS011;22245;52.832;13.816;2023-03-21T13:13:09;24.73;;;14.82;;
17763;SDS011;22245;52.832;13.816;2023-03-21T13:16:41;27.20;;;14.80;;
17763;SDS011;22245;52.832;13.816;2023-03-21T13:20:11;24.67;;;14.57;;
17763;SDS011;22245;52.832;13.816;2023-03-21T13:23:53;25.08;;;14.68;;
17763;SDS011;22245;52.832;13.816;2023-03-21T13:27:23;26.35;;;14.98;;
17763;SDS011;22245;52.832;13.816;2023-03-21T13:30:48;31.38;;;14.90;;
17763;SDS011;22245;52.832;13.816;2023-03-21T13:34:12;24.08;;;14.57;;
17763;SDS011;22245;52.832;13.816;2023-03-21T13:37:37;28.33;;;15.63;;
17763;SDS011;22245;52.832;13.816;2023-03-21T13:41:02;25.10;;;14.25;;
17763;SDS011;22245;52.832;13.816;2023-03-21T13:44:30;25.00;;;13.98;;
17763;SDS011;22245;52.832;13.816;2023-03-21T13:47:56;25.48;;;14.38;;
17763;SDS011;22245;52.832;13.816;2023-03-21T13:51:21;24.42;;;14.88;;
17763;SDS011;22245;52.832;13.816;2023-03-21T13:55:02;24.23;;;14.93;;
17763;SDS011;22245;52.832;13.816;2023-03-21T13:58:30;27.50;;;14.90;;
17763;SDS011;22245;52.832;13.816;2023-03-21T14:01:58;23.27;;;14.18;;
17763;SDS011;22245;52.832;13.816;2023-03-21T14:05:21;26.60;;;15.70;;
17763;SDS011;22245;52.832;13.816;2023-03-21T14:08:46;27.20;;;16.38;;
17763;SDS011;22245;52.832;13.816;2023-03-21T14:12:11;23.40;;;15.13;;
17763;SDS011;22245;52.832;13.816;2023-03-21T14:15:36;23.35;;;14.80;;
17763;SDS011;22245;52.832;13.816;2023-03-21T14:19:13;28.35;;;15.13;;
17763;SDS011;22245;52.832;13.816;2023-03-21T14:22:35;23.23;;;14.45;;
17763;SDS011;22245;52.832;13.816;2023-03-21T14:25:58;26.88;;;15.57;;
17763;SDS011;22245;52.832;13.816;2023-03-21T14:29:22;24.65;;;14.10;;
17763;SDS011;22245;52.832;13.816;2023-03-21T14:32:47;25.20;;;14.55;;
17763;SDS011;22245;52.832;13.816;2023-03-21T14:36:09;24.08;;;14.77;;
17763;SDS011;22245;52.832;13.816;2023-03-21T14:39:35;20.75;;;13.60;;
17763;SDS011;22245;52.832;13.816;2023-03-21T14:42:59;22.80;;;14.15;;
17763;SDS011;22245;52.832;13.816;2023-03-21T14:46:25;23.02;;;14.40;;
17763;SDS011;22245;52.832;13.816;2023-03-21T14:49:49;26.20;;;13.68;;
17763;SDS011;22245;52.832;13.816;2023-03-21T14:53:13;21.58;;;14.23;;
17763;SDS011;22245;52.832;13.816;2023-03-21T14:56:38;22.75;;;14.02;;
17763;SDS011;22245;52.832;13.816;2023-03-21T15:00:04;20.55;;;13.63;;
17763;SDS011;22245;52.832;13.816;2023-03-21T15:03:31;22.17;;;13.43;;
17763;SDS011;22245;52.832;13.816;2023-03-21T15:06:56;23.13;;;13.63;;
17763;SDS011;22245;52.832;13.816;2023-03-21T15:10:21;20.55;;;13.32;;
17763;SDS011;22245;52.832;13.816;2023-03-21T15:13:44;20.83;;;13.75;;
17763;SDS011;22245;52.832;13.816;2023-03-21T15:17:12;24.92;;;14.07;;
17763;SDS011;22245;52.832;13.816;2023-03-21T15:20:35;26.13;;;13.65;;
17763;SDS011;22245;52.832;13.816;2023-03-21T15:24:03;20.77;;;13.23;;
17763;SDS011;22245;52.832;13.816;2023-03-21T15:27:34;19.13;;;13.30;;
17763;SDS011;22245;52.832;13.816;2023-03-21T15:31:00;22.85;;;13.80;;
17763;SDS011;22245;52.832;13.816;2023-03-21T15:34:26;25.88;;;13.65;;
17763;SDS011;22245;52.832;13.816;2023-03-21T15:37:53;27.15;;;13.10;;
17763;SDS011;22245;52.832;13.816;2023-03-21T15:41:22;26.02;;;14.02;;
17763;SDS011;22245;52.832;13.816;2023-03-21T15:44:47;23.00;;;13.38;;
17763;SDS011;22245;52.832;13.816;2023-03-21T15:48:10;21.23;;;13.10;;
17763;SDS011;22245;52.832;13.816;2023-03-21T15:51:36;22.15;;;12.90;;
17763;SDS011;22245;52.832;13.816;2023-03-21T15:54:58;20.65;;;13.23;;
17763;SDS011;22245;52.832;13.816;2023-03-21T15:58:22;22.52;;;13.35;;
17763;SDS011;22245;52.832;13.816;2023-03-21T16:01:45;18.70;;;11.75;;
17763;SDS011;22245;52.832;13.816;2023-03-21T16:05:18;22.23;;;12.70;;
17763;SDS011;22245;52.832;13.816;2023-03-21T16:08:45;20.08;;;11.63;;
17763;SDS011;22245;52.832;13.816;2023-03-21T16:12:10;20.67;;;12.23;;
17763;SDS011;22245;52.832;13.816;2023-03-21T16:15:37;16.27;;;11.55;;
17763;SDS011;22245;52.832;13.816;2023-03-21T16:18:59;27.88;;;12.07;;
17763;SDS011;22245;52.832;13.816;2023-03-21T16:22:21;17.55;;;11.55;;
17763;SDS011;22245;52.832;13.816;2023-03-21T16:25:44;19.73;;;11.45;;
17763;SDS011;22245;52.832;13.816;2023-03-21T16:29:06;18.00;;;11.63;;
17763;SDS011;22245;52.832;13.816;2023-03-21T16:32:28;21.55;;;11.50;;
17763;SDS011;22245;52.832;13.816;2023-03-21T16:35:50;18.75;;;11.57;;
17763;SDS011;22245;52.832;13.816;2023-03-21T16:39:15;17.50;;;11.00;;
17763;SDS011;22245;52.832;13.816;2023-03-21T16:42:39;16.02;;;11.32;;
17763;SDS011;22245;52.832;13.816;2023-03-21T16:46:01;18.48;;;11.38;;
17763;SDS011;22245;52.832;13.816;2023-03-21T16:49:23;20.08;;;11.18;;
17763;SDS011;22245;52.832;13.816;2023-03-21T16:52:47;18.60;;;11.90;;
17763;SDS011;22245;52.832;13.816;2023-03-21T16:56:12;19.10;;;11.55;;
17763;SDS011;22245;52.832;13.816;2023-03-21T16:59:38;17.95;;;10.93;;
17763;SDS011;22245;52.832;13.816;2023-03-21T17:03:01;17.30;;;11.60;;
17763;SDS011;22245;52.832;13.816;2023-03-21T17:06:29;18.73;;;11.93;;
17763;SDS011;22245;52.832;13.816;2023-03-21T17:09:51;19.08;;;11.63;;
17763;SDS011;22245;52.832;13.816;2023-03-21T17:13:13;18.33;;;11.45;;
17763;SDS011;22245;52.832;13.816;2023-03-21T17:16:36;21.63;;;13.40;;
17763;SDS011;22245;52.832;13.816;2023-03-21T17:20:05;16.27;;;11.50;;
17763;SDS011;22245;52.832;13.816;2023-03-21T17:23:35;18.30;;;10.88;;
17763;SDS011;22245;52.832;13.816;2023-03-21T17:26:56;17.73;;;11.98;;
17763;SDS011;22245;52.832;13.816;2023-03-21T17:30:21;21.52;;;13.05;;
17763;SDS011;22245;52.832;13.816;2023-03-21T17:33:46;22.23;;;12.57;;
17763;SDS011;22245;52.832;13.816;2023-03-21T17:37:09;17.75;;;11.15;;
17763;SDS011;22245;52.832;13.816;2023-03-21T17:40:31;15.90;;;10.88;;
17763;SDS011;22245;52.832;13.816;2023-03-21T17:43:53;22.05;;;12.18;;
17763;SDS011;22245;52.832;13.816;2023-03-21T17:47:16;22.90;;;13.18;;
17763;SDS011;22245;52.832;13.816;2023-03-21T17:50:39;20.30;;;12.60;;
17763;SDS011;22245;52.832;13.816;2023-03-21T17:54:00;18.50;;;12.48;;
17763;SDS011;22245;52.832;13.816;2023-03-21T17:57:24;16.10;;;11.30;;
17763;SDS011;22245;52.832;13.816;2023-03-21T18:00:45;20.42;;;11.85;;
17763;SDS011;22245;52.832;13.816;2023-03-21T18:04:06;20.05;;;12.10;;
17763;SDS011;22245;52.832;13.816;2023-03-21T18:07:30;18.63;;;11.10;;
17763;SDS011;22245;52.832;13.816;2023-03-21T18:11:13;15.00;;;10.70;;
17763;SDS011;22245;52.832;13.816;2023-03-21T18:14:37;17.67;;;10.88;;
17763;SDS011;22245;52.832;13.816;2023-03-21T18:17:59;15.40;;;10.90;;
17763;SDS011;22245;52.832;13.816;2023-03-21T18:21:21;21.25;;;14.70;;
17763;SDS011;22245;52.832;13.816;2023-03-21T18:24:49;22.63;;;12.50;;
17763;SDS011;22245;52.832;13.816;2023-03-21T18:28:10;18.75;;;11.77;;
17763;SDS011;22245;52.832;13.816;2023-03-21T18:31:32;13.93;;;10.80;;
17763;SDS011;22245;52.832;13.816;2023-03-21T18:34:56;17.63;;;11.15;;
17763;SDS011;22245;52.832;13.816;2023-03-21T18:38:19;17.45;;;11.23;;
17763;SDS011;22245;52.832;13.816;2023-03-21T18:41:43;14.43;;;10.60;;
17763;SDS011;22245;52.832;13.816;2023-03-21T18:45:06;14.55;;;10.98;;
17763;SDS011;22245;52.832;13.816;2023-03-21T18:48:29;15.85;;;10.20;;
17763;SDS011;22245;52.832;13.816;2023-03-21T18:51:55;20.27;;;11.80;;
17763;SDS011;22245;52.832;13.816;2023-03-21T18:55:17;14.93;;;11.25;;
17763;SDS011;22245;52.832;13.816;2023-03-21T18:58:41;15.38;;;11.13;;
17763;SDS011;22245;52.832;13.816;2023-03-21T19:02:04;16.35;;;11.07;;
17763;SDS011;22245;52.832;13.816;2023-03-21T19:05:26;14.93;;;11.18;;
17763;SDS011;22245;52.832;13.816;2023-03-21T19:08:48;16.05;;;11.48;;
17763;SDS011;22245;52.832;13.816;2023-03-21T19:12:09;15.15;;;11.38;;
17763;SDS011;22245;52.832;13.816;2023-03-21T19:15:33;14.82;;;11.80;;
17763;SDS011;22245;52.832;13.816;2023-03-21T19:18:55;17.20;;;11.48;;
17763;SDS011;22245;52.832;13.816;2023-03-21T19:22:17;16.83;;;11.32;;
17763;SDS011;22245;52.832;13.816;2023-03-21T19:25:39;18.65;;;12.07;;
17763;SDS011;22245;52.832;13.816;2023-03-21T19:29:03;16.60;;;12.43;;
17763;SDS011;22245;52.832;13.816;2023-03-21T19:32:26;18.92;;;13.20;;
17763;SDS011;22245;52.832;13.816;2023-03-21T19:35:47;18.85;;;13.13;;
17763;SDS011;22245;52.832;13.816;2023-03-21T19:39:29;19.58;;;13.50;;
17763;SDS011;22245;52.832;13.816;2023-03-21T19:42:51;23.58;;;14.52;;
17763;SDS011;22245;52.832;13.816;2023-03-21T19:46:13;19.42;;;13.80;;
17763;SDS011;22245;52.832;13.816;2023-03-21T19:49:38;19.27;;;13.82;;
17763;SDS011;22245;52.832;13.816;2023-03-21T19:53:20;29.15;;;18.20;;